createdAt,value
2018-03-21T00:01:37.062Z,87.45
2018-03-21T00:04:07.839Z,87.90
2018-03-21T00:06:36.583Z,88.01
2018-03-21T00:09:06.258Z,88.77
2018-03-21T00:12:37.871Z,88.69
2018-03-21T00:15:06.454Z,87.29
2018-03-21T00:17:34.892Z,87.48
2018-03-21T00:20:03.645Z,88.06
2018-03-21T00:22:32.312Z,88.49
2018-03-21T00:25:01.065Z,88.67
2018-03-21T00:27:29.676Z,88.59
2018-03-21T00:29:58.400Z,89.03
2018-03-21T00:32:27.402Z,89.95
2018-03-21T00:34:56.114Z,89.57
2018-03-21T00:37:24.613Z,89.83
2018-03-21T00:39:53.060Z,89.75
2018-03-21T00:42:21.588Z,89.69
2018-03-21T00:44:50.274Z,89.30
2018-03-21T00:47:19.432Z,89.12
2018-03-21T00:49:48.022Z,90.09
2018-03-21T00:52:16.527Z,90.11
2018-03-21T00:54:45.226Z,90.24
2018-03-21T00:57:13.808Z,89.97
2018-03-21T00:59:42.312Z,90.04
2018-03-21T01:02:11.004Z,89.82
2018-03-21T01:04:39.611Z,89.62
2018-03-21T01:07:08.230Z,89.40
2018-03-21T01:09:36.794Z,89.16
2018-03-21T01:12:05.578Z,89.15
2018-03-21T01:14:34.469Z,89.33
2018-03-21T01:17:03.130Z,89.67
2018-03-21T01:19:32.143Z,89.81
2018-03-21T01:22:00.825Z,90.19
2018-03-21T01:24:29.340Z,90.09
2018-03-21T01:26:57.792Z,90.41
2018-03-21T01:29:26.300Z,90.37
2018-03-21T01:31:54.948Z,90.35
2018-03-21T01:34:23.376Z,90.16
2018-03-21T01:36:52.240Z,89.20
2018-03-21T01:39:20.809Z,89.85
2018-03-21T01:41:49.394Z,90.20
2018-03-21T01:44:18.373Z,90.36
2018-03-21T01:46:46.989Z,90.26
2018-03-21T01:49:15.684Z,90.44
2018-03-21T01:51:44.500Z,90.82
2018-03-21T01:54:13.455Z,90.50
2018-03-21T01:56:42.121Z,90.23
2018-03-21T01:59:10.828Z,89.64
2018-03-21T02:01:40.301Z,89.96
2018-03-21T02:04:09.122Z,90.39
2018-03-21T02:06:37.618Z,90.50
2018-03-21T02:09:06.137Z,90.42
2018-03-21T02:11:35.132Z,90.58
2018-03-21T02:14:04.087Z,90.33
2018-03-21T02:16:32.486Z,90.67
2018-03-21T02:19:00.907Z,90.33
2018-03-21T02:21:29.337Z,90.90
2018-03-21T02:23:58.132Z,90.25
2018-03-21T02:26:27.450Z,90.09
2018-03-21T02:28:56.385Z,90.14
2018-03-21T02:31:25.544Z,90.13
2018-03-21T02:33:54.065Z,89.92
2018-03-21T02:36:22.647Z,88.42
2018-03-21T02:38:51.309Z,88.82
2018-03-21T02:41:20.182Z,89.52
2018-03-21T02:43:48.709Z,89.85
2018-03-21T02:46:17.633Z,90.09
2018-03-21T02:48:46.173Z,90.20
2018-03-21T02:51:15.077Z,90.32
2018-03-21T02:53:43.537Z,90.26
2018-03-21T02:56:11.964Z,90.71
2018-03-21T02:58:40.602Z,90.38
2018-03-21T03:01:09.332Z,89.39
2018-03-21T03:03:37.914Z,88.82
2018-03-21T03:06:06.418Z,89.44
2018-03-21T03:08:34.845Z,89.16
2018-03-21T03:11:03.294Z,89.94
2018-03-21T03:13:31.821Z,89.96
2018-03-21T03:16:00.535Z,90.12
2018-03-21T03:18:29.486Z,89.83
2018-03-21T03:20:58.390Z,89.75
2018-03-21T03:23:26.941Z,90.14
2018-03-21T03:25:56.021Z,89.96
2018-03-21T03:28:24.524Z,90.27
2018-03-21T03:30:52.995Z,90.65
2018-03-21T03:33:21.584Z,90.73
2018-03-21T03:35:50.089Z,90.56
2018-03-21T03:38:19.868Z,90.44
2018-03-21T03:40:48.424Z,90.21
2018-03-21T03:43:17.045Z,90.29
2018-03-21T03:45:45.800Z,90.48
2018-03-21T03:48:14.419Z,90.18
2018-03-21T03:50:43.162Z,90.32
2018-03-21T03:53:11.748Z,90.69
2018-03-21T03:55:40.486Z,91.12
2018-03-21T03:58:09.560Z,91.06
2018-03-21T04:00:38.188Z,90.53
2018-03-21T04:03:06.836Z,90.02
2018-03-21T04:05:35.524Z,90.30
2018-03-21T04:08:03.993Z,90.19
2018-03-21T04:10:32.617Z,90.20
2018-03-21T04:13:01.185Z,90.36
2018-03-21T04:15:29.620Z,90.33
2018-03-21T04:17:58.160Z,90.49
2018-03-21T04:20:26.765Z,90.18
2018-03-21T04:22:55.286Z,90.67
2018-03-21T04:25:23.725Z,89.89
2018-03-21T04:27:52.421Z,89.95
2018-03-21T04:30:21.220Z,89.72
2018-03-21T04:32:49.806Z,90.42
2018-03-21T04:35:18.624Z,89.95
2018-03-21T04:37:47.297Z,89.95
2018-03-21T04:40:15.772Z,90.20
2018-03-21T04:42:44.591Z,90.41
2018-03-21T04:45:13.452Z,90.44
2018-03-21T04:47:42.137Z,90.50
2018-03-21T04:50:10.835Z,90.40
2018-03-21T04:52:39.424Z,90.36
2018-03-21T04:55:07.949Z,89.95
2018-03-21T04:57:36.821Z,89.73
2018-03-21T11:35:26.507Z,34.71
2018-03-21T11:37:55.399Z,32.05
2018-03-21T11:40:24.024Z,33.80
2018-03-21T11:42:53.164Z,31.75
2018-03-21T11:45:22.439Z,31.58
2018-03-21T11:47:51.445Z,29.92
2018-03-21T11:50:20.402Z,32.09
2018-03-21T11:52:50.694Z,28.98
2018-03-21T11:55:19.176Z,29.13
2018-03-21T11:57:48.964Z,30.00
2018-03-21T12:00:17.454Z,28.30
2018-03-21T12:02:47.122Z,28.13
2018-03-21T12:05:16.096Z,31.60
2018-03-21T12:07:44.846Z,34.48
2018-03-21T12:10:13.757Z,32.91
2018-03-21T12:12:42.714Z,30.84
2018-03-21T12:15:11.510Z,31.18
2018-03-21T12:17:40.632Z,31.58
2018-03-21T12:20:09.485Z,31.57
2018-03-21T12:22:38.073Z,32.59
2018-03-21T12:25:06.735Z,34.00
2018-03-21T12:27:35.663Z,33.56
2018-03-21T12:30:05.481Z,33.61
2018-03-21T12:32:35.439Z,34.33
2018-03-21T12:35:03.911Z,35.23
2018-03-21T12:37:32.984Z,33.96
2018-03-21T12:40:01.497Z,34.96
2018-03-21T12:42:30.980Z,34.97
2018-03-21T12:44:59.473Z,33.70
2018-03-21T12:47:29.218Z,34.31
2018-03-21T12:49:58.843Z,35.56
2018-03-21T12:52:28.655Z,34.45
2018-03-21T12:54:57.409Z,33.00
2018-03-21T12:57:27.235Z,35.18
2018-03-21T12:59:55.930Z,34.38
2018-03-21T13:02:24.682Z,31.16
2018-03-21T13:04:53.631Z,30.22
2018-03-21T13:07:22.328Z,26.61
2018-03-21T13:09:51.024Z,24.81
2018-03-21T13:12:20.365Z,24.14
2018-03-21T13:14:49.217Z,24.22
2018-03-21T13:17:18.408Z,24.60
2018-03-21T13:19:47.106Z,23.98
2018-03-21T13:22:15.974Z,26.65
2018-03-21T13:24:45.064Z,24.47
2018-03-21T13:27:13.928Z,23.37
2018-03-21T13:29:42.817Z,21.72
2018-03-21T13:32:11.880Z,25.46
2018-03-21T13:34:40.938Z,20.46
2018-03-21T13:37:09.779Z,21.24
2018-03-21T13:39:38.864Z,20.86
2018-03-21T13:42:07.928Z,20.20
2018-03-21T13:44:36.925Z,20.07
2018-03-21T13:47:05.440Z,19.69
2018-03-21T13:49:34.082Z,19.34
2018-03-21T13:52:03.218Z,18.71
2018-03-21T13:54:33.080Z,19.97
2018-03-21T13:57:01.903Z,20.86
2018-03-21T13:59:30.515Z,23.98
2018-03-21T14:01:59.765Z,23.03
2018-03-21T14:04:28.431Z,21.64
2018-03-21T14:06:57.085Z,22.56
2018-03-21T14:09:26.013Z,24.69
2018-03-21T14:11:54.787Z,27.61
2018-03-21T14:14:24.055Z,29.81
2018-03-21T14:16:53.620Z,30.25
2018-03-21T14:19:22.962Z,31.62
2018-03-21T14:21:52.440Z,31.81
2018-03-21T14:24:21.154Z,32.78
2018-03-21T14:26:49.774Z,33.15
2018-03-21T14:29:18.214Z,34.10
2018-03-21T14:31:46.926Z,33.47
2018-03-21T14:34:15.616Z,33.18
2018-03-21T14:36:44.713Z,33.70
2018-03-21T14:39:13.568Z,33.81
2018-03-21T14:41:42.330Z,34.39
2018-03-21T14:44:10.816Z,35.04
2018-03-21T14:46:40.453Z,35.41
2018-03-21T14:49:09.325Z,35.01
2018-03-21T14:51:38.277Z,35.46
2018-03-21T14:54:07.124Z,35.62
2018-03-21T14:56:35.850Z,35.51
2018-03-21T14:59:04.460Z,35.68
2018-03-21T15:01:33.579Z,35.60
2018-03-21T15:04:03.552Z,35.99
2018-03-21T15:06:33.154Z,36.31
2018-03-21T15:09:02.508Z,36.26
2018-03-21T15:11:31.336Z,37.22
2018-03-21T15:14:00.698Z,36.55
2018-03-21T15:16:30.002Z,37.15
2018-03-21T15:18:59.333Z,37.61
2018-03-21T15:21:28.227Z,36.88
2018-03-21T15:23:57.336Z,37.71
2018-03-21T15:26:27.550Z,37.57
2018-03-21T15:28:58.363Z,38.12
2018-03-21T15:31:27.032Z,38.98
2018-03-21T15:33:55.635Z,38.37
2018-03-21T15:36:25.594Z,39.18
2018-03-21T15:38:54.922Z,38.71
2018-03-21T15:41:24.410Z,39.19
2018-03-21T15:43:53.973Z,39.18
2018-03-21T15:46:24.227Z,39.45
2018-03-21T15:48:53.289Z,39.79
2018-03-21T15:51:22.625Z,40.51
2018-03-21T15:53:52.061Z,40.86
2018-03-21T15:56:21.362Z,41.02
2018-03-21T15:58:50.186Z,41.61
2018-03-21T16:01:18.921Z,41.81
2018-03-21T16:03:47.664Z,42.25
2018-03-21T16:06:16.779Z,42.64
2018-03-21T16:08:46.766Z,42.75
2018-03-21T16:11:16.823Z,42.97
2018-03-21T16:13:45.444Z,43.73
2018-03-21T16:16:14.274Z,44.04
2018-03-21T16:18:44.178Z,44.85
2018-03-21T16:21:13.122Z,45.42
2018-03-21T16:23:42.763Z,45.33
2018-03-21T16:26:11.800Z,46.04
2018-03-21T16:28:40.979Z,46.37
2018-03-21T16:31:10.542Z,46.33
2018-03-21T16:33:40.249Z,46.46
2018-03-21T16:36:09.744Z,46.71
2018-03-21T16:38:38.531Z,47.07
2018-03-21T16:41:07.400Z,47.32
2018-03-21T16:43:36.558Z,47.79
2018-03-21T16:46:05.648Z,47.85
2018-03-21T16:48:34.373Z,48.41
2018-03-21T16:51:03.656Z,48.85
2018-03-21T16:53:32.246Z,49.25
2018-03-21T16:56:02.030Z,49.72
2018-03-21T16:58:30.719Z,50.15
2018-03-21T17:01:00.157Z,50.44
2018-03-21T17:03:29.269Z,50.85
2018-03-21T17:05:59.029Z,50.62
2018-03-21T17:08:28.119Z,51.01
2018-03-21T17:10:57.270Z,51.65
2018-03-21T17:13:26.145Z,51.77
2018-03-21T17:15:55.027Z,52.34
2018-03-21T17:18:24.043Z,52.53
2018-03-21T17:20:52.998Z,53.62
2018-03-21T17:23:21.612Z,53.64
2018-03-21T17:25:50.325Z,53.60
2018-03-21T17:28:19.443Z,53.38
2018-03-21T17:30:48.251Z,54.00
2018-03-21T17:33:16.756Z,54.22
2018-03-21T17:35:47.403Z,54.22
2018-03-21T17:38:16.008Z,54.62
2018-03-21T17:40:45.673Z,55.15
2018-03-21T17:43:14.169Z,54.87
2018-03-21T17:45:43.258Z,55.03
2018-03-21T17:48:13.042Z,54.83
2018-03-21T17:50:41.718Z,55.17
2018-03-21T17:53:10.608Z,55.35
2018-03-21T17:55:39.438Z,55.64
2018-03-21T17:58:07.947Z,55.21
2018-03-21T18:00:36.993Z,55.75
2018-03-21T18:03:05.676Z,55.58
2018-03-21T18:05:35.037Z,56.05
2018-03-21T18:08:03.992Z,55.74
2018-03-21T18:10:33.637Z,55.96
2018-03-21T18:13:03.404Z,56.59
2018-03-21T18:15:32.071Z,56.12
2018-03-21T18:18:00.906Z,56.21
2018-03-21T18:20:29.669Z,56.85
2018-03-21T18:22:58.203Z,56.67
2018-03-21T18:25:26.860Z,56.78
2018-03-21T18:27:55.538Z,56.93
2018-03-21T18:30:24.138Z,57.13
2018-03-21T18:32:52.682Z,57.73
2018-03-21T18:35:21.875Z,57.97
2018-03-21T18:37:52.324Z,57.80
2018-03-21T18:40:22.297Z,58.35
2018-03-21T18:42:51.013Z,58.17
2018-03-21T18:45:19.809Z,58.72
2018-03-21T18:47:48.560Z,58.74
2018-03-21T18:50:18.267Z,58.64
2018-03-21T18:52:47.809Z,58.53
2018-03-21T18:55:16.669Z,58.49
2018-03-21T18:57:45.515Z,59.39
2018-03-21T19:00:14.529Z,59.10
2018-03-21T19:02:45.565Z,59.49
2018-03-21T19:05:14.698Z,59.46
2018-03-21T19:07:44.511Z,60.08
2018-03-21T19:10:14.243Z,60.33
2018-03-21T19:12:44.485Z,60.09
2018-03-21T19:15:13.798Z,60.76
2018-03-21T19:17:43.179Z,60.65
2018-03-21T19:20:12.429Z,60.97
2018-03-21T19:22:41.523Z,60.66
2018-03-21T19:25:10.386Z,60.93
2018-03-21T19:27:39.359Z,61.44
2018-03-21T19:30:09.321Z,61.15
2018-03-21T19:32:37.937Z,61.11
2018-03-21T19:35:07.411Z,61.20
2018-03-21T19:37:36.214Z,61.22
2018-03-21T19:40:05.552Z,61.24
2018-03-21T19:42:34.391Z,61.09
2018-03-21T19:45:03.098Z,61.18
2018-03-21T19:47:32.489Z,61.33
2018-03-21T19:50:02.993Z,61.11
2018-03-21T19:52:32.153Z,61.29
2018-03-21T19:55:01.064Z,61.25
2018-03-21T19:57:29.773Z,61.18
2018-03-21T19:59:58.642Z,61.66
2018-03-21T20:02:27.734Z,62.05
2018-03-21T20:04:57.143Z,62.43
2018-03-21T20:07:26.136Z,62.80
2018-03-21T20:09:55.937Z,61.74
2018-03-21T20:12:25.919Z,62.17
2018-03-21T20:14:55.513Z,62.20
2018-03-21T20:17:25.295Z,62.45
2018-03-21T20:19:55.075Z,62.40
2018-03-21T20:22:24.217Z,62.57
2018-03-21T20:24:54.279Z,63.38
2018-03-21T20:27:24.073Z,63.64
2018-03-21T20:29:52.543Z,63.54
2018-03-21T20:32:21.983Z,63.03
2018-03-21T20:34:50.871Z,63.62
2018-03-21T20:37:19.748Z,62.79
2018-03-21T20:39:48.622Z,63.33
2018-03-21T20:42:17.342Z,63.09
2018-03-21T20:44:45.974Z,63.24
2018-03-21T20:47:14.721Z,63.53
2018-03-21T20:49:46.305Z,63.89
2018-03-21T20:52:15.150Z,63.72
2018-03-21T20:54:44.318Z,63.71
2018-03-21T20:57:13.403Z,63.95
2018-03-21T20:59:43.129Z,64.11
2018-03-21T21:02:12.556Z,64.18
2018-03-21T21:04:42.457Z,64.23
2018-03-21T21:07:11.045Z,64.60
2018-03-21T21:09:40.516Z,64.76
2018-03-21T21:12:09.158Z,64.52
2018-03-21T21:14:37.791Z,64.69
2018-03-21T21:17:06.890Z,64.52
2018-03-21T21:19:36.289Z,64.40
2018-03-21T21:22:05.754Z,64.53
2018-03-21T21:24:34.503Z,64.77
2018-03-21T21:27:03.330Z,64.65
2018-03-21T21:29:32.340Z,64.79
2018-03-21T21:32:00.991Z,65.98
2018-03-21T21:34:29.645Z,65.18
2018-03-21T21:36:58.196Z,65.66
2018-03-21T21:39:26.817Z,65.56
2018-03-21T21:41:55.320Z,66.30
2018-03-21T21:44:30.270Z,65.15
2018-03-21T21:46:59.439Z,66.37
2018-03-21T21:49:28.187Z,65.22
2018-03-21T21:51:57.551Z,64.99
2018-03-21T21:54:25.976Z,65.30
2018-03-21T21:56:56.047Z,65.51
2018-03-21T21:59:24.867Z,65.23
2018-03-21T22:01:53.823Z,65.26
2018-03-21T22:04:22.484Z,65.82
2018-03-21T22:06:52.292Z,66.92
2018-03-21T22:09:21.252Z,67.99
2018-03-21T22:11:49.965Z,68.41
2018-03-21T22:14:19.382Z,66.86
2018-03-21T22:16:48.973Z,65.50
2018-03-21T22:19:17.615Z,64.43
2018-03-21T22:21:46.049Z,64.88
2018-03-21T22:24:14.659Z,63.68
2018-03-21T22:26:43.151Z,63.97
2018-03-21T22:29:11.924Z,63.49
2018-03-21T22:31:40.796Z,64.21
2018-03-21T22:34:10.841Z,63.54
2018-03-21T22:36:39.532Z,63.43
2018-03-21T22:39:08.158Z,63.72
2018-03-21T22:41:36.877Z,64.97
2018-03-21T22:44:05.402Z,64.09
2018-03-21T22:46:34.163Z,64.45
2018-03-21T22:49:02.687Z,63.43
2018-03-21T22:51:31.299Z,63.49
2018-03-21T22:54:00.468Z,64.48
2018-03-21T22:56:28.975Z,64.43
2018-03-21T22:58:57.626Z,64.31
2018-03-21T23:01:27.263Z,63.83
2018-03-21T23:03:56.076Z,63.98
2018-03-21T23:06:25.221Z,63.95
2018-03-21T23:08:53.889Z,64.18
2018-03-21T23:11:23.397Z,64.52
2018-03-21T23:13:52.189Z,64.13
2018-03-21T23:16:20.743Z,64.56
2018-03-21T23:18:49.328Z,64.33
2018-03-21T23:21:18.105Z,64.48
2018-03-21T23:23:46.721Z,64.54
2018-03-21T23:26:15.280Z,64.45
2018-03-21T23:28:44.127Z,64.78
2018-03-21T23:31:12.618Z,64.91
2018-03-21T23:33:41.472Z,64.65
2018-03-21T23:36:10.766Z,64.71
2018-03-21T23:38:39.292Z,65.34
2018-03-21T23:41:08.004Z,65.31
2018-03-21T23:43:36.644Z,65.61
2018-03-21T23:46:05.648Z,65.67
2018-03-21T23:48:34.309Z,66.04
2018-03-21T23:51:03.652Z,66.02
2018-03-21T23:53:32.310Z,67.02
2018-03-21T23:56:00.938Z,67.18
2018-03-21T23:58:29.558Z,67.58
